sensor_id;sensor_type;location;lat;lon;timestamp;temperature;humidity
53073;DHT22;38955;48.916;2.336;2023-08-30T00:00:39;17.10;97.80
53073;DHT22;38955;48.916;2.336;2023-08-30T00:02:41;17.10;97.80
53073;DHT22;38955;48.916;2.336;2023-08-30T00:04:44;17.10;97.80
53073;DHT22;38955;48.916;2.336;2023-08-30T00:06:47;17.00;97.80
53073;DHT22;38955;48.916;2.336;2023-08-30T00:08:49;17.00;97.90
53073;DHT22;38955;48.916;2.336;2023-08-30T00:10:51;17.00;97.90
53073;DHT22;38955;48.916;2.336;2023-08-30T00:12:53;17.00;98.00
53073;DHT22;38955;48.916;2.336;2023-08-30T00:14:55;17.00;98.00
53073;DHT22;38955;48.916;2.336;2023-08-30T00:16:58;16.90;98.00
53073;DHT22;38955;48.916;2.336;2023-08-30T00:19:00;17.00;98.00
53073;DHT22;38955;48.916;2.336;2023-08-30T00:21:02;17.00;98.10
53073;DHT22;38955;48.916;2.336;2023-08-30T00:23:06;17.00;98.00
53073;DHT22;38955;48.916;2.336;2023-08-30T00:25:08;17.00;98.10
53073;DHT22;38955;48.916;2.336;2023-08-30T00:27:11;17.00;98.20
53073;DHT22;38955;48.916;2.336;2023-08-30T00:29:13;17.00;98.30
53073;DHT22;38955;48.916;2.336;2023-08-30T00:31:16;17.00;98.10
53073;DHT22;38955;48.916;2.336;2023-08-30T00:33:19;17.10;98.10
53073;DHT22;38955;48.916;2.336;2023-08-30T00:35:22;17.10;98.00
53073;DHT22;38955;48.916;2.336;2023-08-30T00:37:24;17.10;98.00
53073;DHT22;38955;48.916;2.336;2023-08-30T00:39:28;17.10;98.00
53073;DHT22;38955;48.916;2.336;2023-08-30T00:41:30;17.10;98.00
53073;DHT22;38955;48.916;2.336;2023-08-30T00:43:33;17.10;97.90
53073;DHT22;38955;48.916;2.336;2023-08-30T00:45:38;17.10;98.00
53073;DHT22;38955;48.916;2.336;2023-08-30T00:47:42;17.10;98.00
53073;DHT22;38955;48.916;2.336;2023-08-30T00:49:46;17.10;97.90
53073;DHT22;38955;48.916;2.336;2023-08-30T00:51:48;17.20;97.90
53073;DHT22;38955;48.916;2.336;2023-08-30T00:53:50;17.20;97.80
53073;DHT22;38955;48.916;2.336;2023-08-30T00:55:53;17.30;97.80
53073;DHT22;38955;48.916;2.336;2023-08-30T00:57:55;17.30;97.80
53073;DHT22;38955;48.916;2.336;2023-08-30T00:59:58;17.30;97.70
53073;DHT22;38955;48.916;2.336;2023-08-30T01:02:00;17.40;97.60
53073;DHT22;38955;48.916;2.336;2023-08-30T01:04:05;17.40;97.50
53073;DHT22;38955;48.916;2.336;2023-08-30T01:06:07;17.40;97.40
53073;DHT22;38955;48.916;2.336;2023-08-30T01:08:09;17.50;97.30
53073;DHT22;38955;48.916;2.336;2023-08-30T01:10:13;17.50;97.30
53073;DHT22;38955;48.916;2.336;2023-08-30T01:12:20;17.50;97.10
53073;DHT22;38955;48.916;2.336;2023-08-30T01:14:31;17.60;97.10
53073;DHT22;38955;48.916;2.336;2023-08-30T01:16:36;17.60;97.10
53073;DHT22;38955;48.916;2.336;2023-08-30T01:18:39;17.50;97.00
53073;DHT22;38955;48.916;2.336;2023-08-30T01:20:43;17.60;97.00
53073;DHT22;38955;48.916;2.336;2023-08-30T01:22:55;17.60;96.90
53073;DHT22;38955;48.916;2.336;2023-08-30T01:25:04;17.60;96.90
53073;DHT22;38955;48.916;2.336;2023-08-30T01:27:12;17.60;96.80
53073;DHT22;38955;48.916;2.336;2023-08-30T01:29:15;17.60;96.70
53073;DHT22;38955;48.916;2.336;2023-08-30T01:31:18;17.60;96.70
53073;DHT22;38955;48.916;2.336;2023-08-30T01:33:21;17.60;96.70
53073;DHT22;38955;48.916;2.336;2023-08-30T01:35:26;17.60;96.80
53073;DHT22;38955;48.916;2.336;2023-08-30T01:37:34;17.70;97.00
53073;DHT22;38955;48.916;2.336;2023-08-30T01:39:37;17.60;96.70
53073;DHT22;38955;48.916;2.336;2023-08-30T01:41:40;17.70;96.60
53073;DHT22;38955;48.916;2.336;2023-08-30T01:43:44;17.60;96.60
53073;DHT22;38955;48.916;2.336;2023-08-30T01:45:46;17.70;96.60
53073;DHT22;38955;48.916;2.336;2023-08-30T01:47:50;17.70;96.80
53073;DHT22;38955;48.916;2.336;2023-08-30T01:49:55;17.70;96.60
53073;DHT22;38955;48.916;2.336;2023-08-30T01:51:58;17.70;96.70
53073;DHT22;38955;48.916;2.336;2023-08-30T01:54:02;17.70;96.50
53073;DHT22;38955;48.916;2.336;2023-08-30T01:56:06;17.70;96.50
53073;DHT22;38955;48.916;2.336;2023-08-30T01:58:08;17.70;96.40
53073;DHT22;38955;48.916;2.336;2023-08-30T02:00:14;17.70;96.40
53073;DHT22;38955;48.916;2.336;2023-08-30T02:02:16;17.80;96.30
53073;DHT22;38955;48.916;2.336;2023-08-30T02:04:19;17.80;96.20
53073;DHT22;38955;48.916;2.336;2023-08-30T02:06:24;17.80;96.20
53073;DHT22;38955;48.916;2.336;2023-08-30T02:08:35;17.80;96.50
53073;DHT22;38955;48.916;2.336;2023-08-30T02:10:41;17.80;96.10
53073;DHT22;38955;48.916;2.336;2023-08-30T02:12:49;17.80;96.10
53073;DHT22;38955;48.916;2.336;2023-08-30T02:14:51;17.80;96.10
53073;DHT22;38955;48.916;2.336;2023-08-30T02:16:56;17.80;96.20
53073;DHT22;38955;48.916;2.336;2023-08-30T02:18:58;17.70;96.20
53073;DHT22;38955;48.916;2.336;2023-08-30T02:21:01;17.80;96.20
53073;DHT22;38955;48.916;2.336;2023-08-30T02:23:03;17.80;96.20
53073;DHT22;38955;48.916;2.336;2023-08-30T02:25:16;17.80;96.20
53073;DHT22;38955;48.916;2.336;2023-08-30T02:27:19;17.70;96.10
53073;DHT22;38955;48.916;2.336;2023-08-30T02:29:21;17.80;96.00
53073;DHT22;38955;48.916;2.336;2023-08-30T02:31:25;17.70;96.10
53073;DHT22;38955;48.916;2.336;2023-08-30T02:33:28;17.80;96.10
53073;DHT22;38955;48.916;2.336;2023-08-30T02:35:31;17.80;96.00
53073;DHT22;38955;48.916;2.336;2023-08-30T02:37:33;17.70;96.20
53073;DHT22;38955;48.916;2.336;2023-08-30T02:39:35;17.70;96.00
53073;DHT22;38955;48.916;2.336;2023-08-30T02:41:37;17.70;95.90
53073;DHT22;38955;48.916;2.336;2023-08-30T02:43:40;17.80;95.90
53073;DHT22;38955;48.916;2.336;2023-08-30T02:45:42;17.70;95.80
53073;DHT22;38955;48.916;2.336;2023-08-30T02:47:45;17.70;95.80
53073;DHT22;38955;48.916;2.336;2023-08-30T02:49:50;17.70;95.80
53073;DHT22;38955;48.916;2.336;2023-08-30T02:51:52;17.70;95.80
53073;DHT22;38955;48.916;2.336;2023-08-30T02:53:54;17.70;95.80
53073;DHT22;38955;48.916;2.336;2023-08-30T02:55:56;17.70;95.80
53073;DHT22;38955;48.916;2.336;2023-08-30T02:57:59;17.70;95.70
53073;DHT22;38955;48.916;2.336;2023-08-30T03:00:01;17.70;95.80
53073;DHT22;38955;48.916;2.336;2023-08-30T03:02:08;17.70;95.80
53073;DHT22;38955;48.916;2.336;2023-08-30T03:04:10;17.70;95.80
53073;DHT22;38955;48.916;2.336;2023-08-30T03:06:13;17.70;95.90
53073;DHT22;38955;48.916;2.336;2023-08-30T03:08:16;17.70;95.80
53073;DHT22;38955;48.916;2.336;2023-08-30T03:10:18;17.70;95.70
53073;DHT22;38955;48.916;2.336;2023-08-30T03:12:20;17.70;95.70
53073;DHT22;38955;48.916;2.336;2023-08-30T03:14:22;17.70;95.70
53073;DHT22;38955;48.916;2.336;2023-08-30T03:16:24;17.70;95.70
53073;DHT22;38955;48.916;2.336;2023-08-30T03:18:27;17.60;95.80
53073;DHT22;38955;48.916;2.336;2023-08-30T03:20:29;17.60;95.90
53073;DHT22;38955;48.916;2.336;2023-08-30T03:22:32;17.60;95.90
53073;DHT22;38955;48.916;2.336;2023-08-30T03:24:34;17.60;96.10
53073;DHT22;38955;48.916;2.336;2023-08-30T03:26:37;17.50;96.10
53073;DHT22;38955;48.916;2.336;2023-08-30T03:28:40;17.50;96.20
53073;DHT22;38955;48.916;2.336;2023-08-30T03:30:42;17.60;96.20
53073;DHT22;38955;48.916;2.336;2023-08-30T03:32:44;17.60;96.30
53073;DHT22;38955;48.916;2.336;2023-08-30T03:34:47;17.60;96.40
53073;DHT22;38955;48.916;2.336;2023-08-30T03:36:50;17.60;96.60
53073;DHT22;38955;48.916;2.336;2023-08-30T03:38:57;17.50;96.70
53073;DHT22;38955;48.916;2.336;2023-08-30T03:40:59;17.60;96.80
53073;DHT22;38955;48.916;2.336;2023-08-30T03:43:01;17.50;96.90
53073;DHT22;38955;48.916;2.336;2023-08-30T03:45:04;17.50;96.90
53073;DHT22;38955;48.916;2.336;2023-08-30T03:47:07;17.50;96.90
53073;DHT22;38955;48.916;2.336;2023-08-30T03:49:09;17.50;97.20
53073;DHT22;38955;48.916;2.336;2023-08-30T03:51:12;17.50;97.20
53073;DHT22;38955;48.916;2.336;2023-08-30T03:53:14;17.40;97.40
53073;DHT22;38955;48.916;2.336;2023-08-30T03:55:19;17.50;97.50
53073;DHT22;38955;48.916;2.336;2023-08-30T03:57:21;17.50;97.60
53073;DHT22;38955;48.916;2.336;2023-08-30T03:59:26;17.40;97.60
53073;DHT22;38955;48.916;2.336;2023-08-30T04:01:30;17.40;97.70
53073;DHT22;38955;48.916;2.336;2023-08-30T04:03:32;17.40;97.70
53073;DHT22;38955;48.916;2.336;2023-08-30T04:05:34;17.40;97.80
53073;DHT22;38955;48.916;2.336;2023-08-30T04:07:36;17.50;97.80
53073;DHT22;38955;48.916;2.336;2023-08-30T04:09:38;17.50;97.70
53073;DHT22;38955;48.916;2.336;2023-08-30T04:11:43;17.50;97.80
53073;DHT22;38955;48.916;2.336;2023-08-30T04:13:45;17.50;97.80
53073;DHT22;38955;48.916;2.336;2023-08-30T04:15:47;17.50;97.80
53073;DHT22;38955;48.916;2.336;2023-08-30T04:17:50;17.50;97.80
53073;DHT22;38955;48.916;2.336;2023-08-30T04:19:52;17.50;97.90
53073;DHT22;38955;48.916;2.336;2023-08-30T04:21:54;17.50;97.90
53073;DHT22;38955;48.916;2.336;2023-08-30T04:23:56;17.50;97.90
53073;DHT22;38955;48.916;2.336;2023-08-30T04:25:58;17.50;98.00
53073;DHT22;38955;48.916;2.336;2023-08-30T04:28:02;17.50;97.90
53073;DHT22;38955;48.916;2.336;2023-08-30T04:30:05;17.50;98.00
53073;DHT22;38955;48.916;2.336;2023-08-30T04:32:07;17.50;98.10
53073;DHT22;38955;48.916;2.336;2023-08-30T04:34:09;17.50;98.00
53073;DHT22;38955;48.916;2.336;2023-08-30T04:36:11;17.50;98.10
53073;DHT22;38955;48.916;2.336;2023-08-30T04:38:13;17.50;98.10
53073;DHT22;38955;48.916;2.336;2023-08-30T04:40:16;17.50;98.10
53073;DHT22;38955;48.916;2.336;2023-08-30T04:42:19;17.50;98.10
53073;DHT22;38955;48.916;2.336;2023-08-30T04:44:25;17.50;98.10
53073;DHT22;38955;48.916;2.336;2023-08-30T04:46:30;17.50;98.20
53073;DHT22;38955;48.916;2.336;2023-08-30T04:48:32;17.50;98.30
53073;DHT22;38955;48.916;2.336;2023-08-30T04:50:34;17.50;98.30
53073;DHT22;38955;48.916;2.336;2023-08-30T04:52:36;17.50;98.30
53073;DHT22;38955;48.916;2.336;2023-08-30T04:54:38;17.50;98.30
53073;DHT22;38955;48.916;2.336;2023-08-30T04:56:41;17.50;98.40
53073;DHT22;38955;48.916;2.336;2023-08-30T04:58:43;17.50;98.50
53073;DHT22;38955;48.916;2.336;2023-08-30T05:00:49;17.50;98.60
53073;DHT22;38955;48.916;2.336;2023-08-30T05:02:51;17.50;98.60
53073;DHT22;38955;48.916;2.336;2023-08-30T05:04:53;17.50;98.60
53073;DHT22;38955;48.916;2.336;2023-08-30T05:06:55;17.50;98.70
53073;DHT22;38955;48.916;2.336;2023-08-30T05:08:57;17.50;98.70
53073;DHT22;38955;48.916;2.336;2023-08-30T05:11:00;17.50;98.60
53073;DHT22;38955;48.916;2.336;2023-08-30T05:13:02;17.50;98.70
53073;DHT22;38955;48.916;2.336;2023-08-30T05:15:06;17.50;98.80
53073;DHT22;38955;48.916;2.336;2023-08-30T05:17:10;17.50;98.80
53073;DHT22;38955;48.916;2.336;2023-08-30T05:19:12;17.50;98.80
53073;DHT22;38955;48.916;2.336;2023-08-30T05:21:15;17.50;98.80
53073;DHT22;38955;48.916;2.336;2023-08-30T05:23:17;17.50;98.80
53073;DHT22;38955;48.916;2.336;2023-08-30T05:25:19;17.60;98.80
53073;DHT22;38955;48.916;2.336;2023-08-30T05:27:21;17.60;98.80
53073;DHT22;38955;48.916;2.336;2023-08-30T05:29:23;17.50;98.80
53073;DHT22;38955;48.916;2.336;2023-08-30T05:31:25;17.50;98.90
53073;DHT22;38955;48.916;2.336;2023-08-30T05:33:29;17.50;98.90
53073;DHT22;38955;48.916;2.336;2023-08-30T05:35:31;17.60;98.90
53073;DHT22;38955;48.916;2.336;2023-08-30T05:37:33;17.60;99.00
53073;DHT22;38955;48.916;2.336;2023-08-30T05:39:35;17.60;98.90
53073;DHT22;38955;48.916;2.336;2023-08-30T05:41:37;17.60;99.00
53073;DHT22;38955;48.916;2.336;2023-08-30T05:43:39;17.60;99.40
53073;DHT22;38955;48.916;2.336;2023-08-30T05:45:41;17.60;99.40
53073;DHT22;38955;48.916;2.336;2023-08-30T05:47:43;17.60;99.40
53073;DHT22;38955;48.916;2.336;2023-08-30T05:49:47;17.60;99.50
53073;DHT22;38955;48.916;2.336;2023-08-30T05:51:49;17.60;99.40
53073;DHT22;38955;48.916;2.336;2023-08-30T05:53:51;17.60;99.40
53073;DHT22;38955;48.916;2.336;2023-08-30T05:55:53;17.60;99.30
53073;DHT22;38955;48.916;2.336;2023-08-30T05:57:55;17.60;99.50
53073;DHT22;38955;48.916;2.336;2023-08-30T05:59:57;17.60;99.30
53073;DHT22;38955;48.916;2.336;2023-08-30T06:01:59;17.60;99.30
53073;DHT22;38955;48.916;2.336;2023-08-30T06:04:02;17.50;99.30
53073;DHT22;38955;48.916;2.336;2023-08-30T06:06:07;17.50;99.40
53073;DHT22;38955;48.916;2.336;2023-08-30T06:08:10;17.50;99.40
53073;DHT22;38955;48.916;2.336;2023-08-30T06:10:12;17.60;99.60
53073;DHT22;38955;48.916;2.336;2023-08-30T06:12:14;17.50;99.90
53073;DHT22;38955;48.916;2.336;2023-08-30T06:14:16;17.50;99.90
53073;DHT22;38955;48.916;2.336;2023-08-30T06:16:18;17.50;99.90
53073;DHT22;38955;48.916;2.336;2023-08-30T06:18:20;17.50;99.90
53073;DHT22;38955;48.916;2.336;2023-08-30T06:20:23;17.50;99.90
53073;DHT22;38955;48.916;2.336;2023-08-30T06:22:26;17.50;99.90
53073;DHT22;38955;48.916;2.336;2023-08-30T06:24:28;17.60;99.90
53073;DHT22;38955;48.916;2.336;2023-08-30T06:26:30;17.60;99.90
53073;DHT22;38955;48.916;2.336;2023-08-30T06:28:32;17.70;99.90
53073;DHT22;38955;48.916;2.336;2023-08-30T06:30:35;17.70;99.90
53073;DHT22;38955;48.916;2.336;2023-08-30T06:32:37;17.70;99.90
53073;DHT22;38955;48.916;2.336;2023-08-30T06:34:39;17.70;99.90
53073;DHT22;38955;48.916;2.336;2023-08-30T06:36:41;17.70;99.90
53073;DHT22;38955;48.916;2.336;2023-08-30T06:38:44;17.70;99.90
53073;DHT22;38955;48.916;2.336;2023-08-30T06:40:46;17.80;99.90
53073;DHT22;38955;48.916;2.336;2023-08-30T06:42:48;17.80;99.90
53073;DHT22;38955;48.916;2.336;2023-08-30T06:44:50;17.80;99.90
53073;DHT22;38955;48.916;2.336;2023-08-30T06:46:53;17.90;99.90
53073;DHT22;38955;48.916;2.336;2023-08-30T06:48:56;17.90;99.90
53073;DHT22;38955;48.916;2.336;2023-08-30T06:50:58;17.90;99.90
53073;DHT22;38955;48.916;2.336;2023-08-30T06:53:01;18.00;99.80
53073;DHT22;38955;48.916;2.336;2023-08-30T06:55:05;18.10;99.70
53073;DHT22;38955;48.916;2.336;2023-08-30T06:57:07;18.00;99.60
53073;DHT22;38955;48.916;2.336;2023-08-30T06:59:10;18.00;99.50
53073;DHT22;38955;48.916;2.336;2023-08-30T07:01:12;18.10;99.80
53073;DHT22;38955;48.916;2.336;2023-08-30T07:03:14;18.10;99.60
53073;DHT22;38955;48.916;2.336;2023-08-30T07:05:17;18.10;99.60
53073;DHT22;38955;48.916;2.336;2023-08-30T07:07:19;18.10;99.50
53073;DHT22;38955;48.916;2.336;2023-08-30T07:09:21;18.10;99.60
53073;DHT22;38955;48.916;2.336;2023-08-30T07:11:26;18.00;99.60
53073;DHT22;38955;48.916;2.336;2023-08-30T07:13:35;18.00;99.60
53073;DHT22;38955;48.916;2.336;2023-08-30T07:15:39;18.00;99.60
53073;DHT22;38955;48.916;2.336;2023-08-30T07:17:41;18.00;99.60
53073;DHT22;38955;48.916;2.336;2023-08-30T07:19:54;18.00;99.80
53073;DHT22;38955;48.916;2.336;2023-08-30T07:21:56;18.00;99.90
53073;DHT22;38955;48.916;2.336;2023-08-30T07:23:58;18.00;99.80
53073;DHT22;38955;48.916;2.336;2023-08-30T07:26:00;18.10;99.70
53073;DHT22;38955;48.916;2.336;2023-08-30T07:28:04;18.10;99.80
53073;DHT22;38955;48.916;2.336;2023-08-30T07:30:08;18.10;99.80
53073;DHT22;38955;48.916;2.336;2023-08-30T07:32:10;18.20;99.40
53073;DHT22;38955;48.916;2.336;2023-08-30T07:34:12;18.20;99.40
53073;DHT22;38955;48.916;2.336;2023-08-30T07:36:15;18.20;99.40
53073;DHT22;38955;48.916;2.336;2023-08-30T07:38:17;18.20;99.20
53073;DHT22;38955;48.916;2.336;2023-08-30T07:40:20;18.30;99.20
53073;DHT22;38955;48.916;2.336;2023-08-30T07:42:27;18.30;99.30
53073;DHT22;38955;48.916;2.336;2023-08-30T07:44:30;18.30;98.80
53073;DHT22;38955;48.916;2.336;2023-08-30T07:46:32;18.40;99.00
53073;DHT22;38955;48.916;2.336;2023-08-30T07:48:34;18.40;98.70
53073;DHT22;38955;48.916;2.336;2023-08-30T07:50:36;18.60;98.60
53073;DHT22;38955;48.916;2.336;2023-08-30T07:52:38;18.80;98.50
53073;DHT22;38955;48.916;2.336;2023-08-30T07:54:48;18.90;98.10
53073;DHT22;38955;48.916;2.336;2023-08-30T07:56:50;19.00;98.00
53073;DHT22;38955;48.916;2.336;2023-08-30T07:58:53;19.00;97.80
53073;DHT22;38955;48.916;2.336;2023-08-30T08:00:57;18.90;97.80
53073;DHT22;38955;48.916;2.336;2023-08-30T08:02:59;18.90;97.70
53073;DHT22;38955;48.916;2.336;2023-08-30T08:05:01;18.80;97.70
53073;DHT22;38955;48.916;2.336;2023-08-30T08:07:04;18.70;97.80
53073;DHT22;38955;48.916;2.336;2023-08-30T08:09:06;18.70;98.50
53073;DHT22;38955;48.916;2.336;2023-08-30T08:11:09;18.80;98.30
53073;DHT22;38955;48.916;2.336;2023-08-30T08:13:11;18.80;98.30
53073;DHT22;38955;48.916;2.336;2023-08-30T08:15:15;18.80;98.00
53073;DHT22;38955;48.916;2.336;2023-08-30T08:17:19;18.90;98.00
53073;DHT22;38955;48.916;2.336;2023-08-30T08:19:21;18.90;97.70
53073;DHT22;38955;48.916;2.336;2023-08-30T08:21:27;19.00;97.70
53073;DHT22;38955;48.916;2.336;2023-08-30T08:23:29;19.20;97.00
53073;DHT22;38955;48.916;2.336;2023-08-30T08:25:31;19.20;97.00
53073;DHT22;38955;48.916;2.336;2023-08-30T08:27:33;19.20;96.90
53073;DHT22;38955;48.916;2.336;2023-08-30T08:29:35;19.20;96.90
53073;DHT22;38955;48.916;2.336;2023-08-30T08:31:37;19.30;96.80
53073;DHT22;38955;48.916;2.336;2023-08-30T08:33:42;19.40;96.60
53073;DHT22;38955;48.916;2.336;2023-08-30T08:35:45;19.50;96.40
53073;DHT22;38955;48.916;2.336;2023-08-30T08:37:47;19.50;96.00
53073;DHT22;38955;48.916;2.336;2023-08-30T08:39:49;19.50;95.90
53073;DHT22;38955;48.916;2.336;2023-08-30T08:41:53;19.50;95.80
53073;DHT22;38955;48.916;2.336;2023-08-30T08:43:55;19.40;96.00
53073;DHT22;38955;48.916;2.336;2023-08-30T08:46:00;19.50;96.00
53073;DHT22;38955;48.916;2.336;2023-08-30T08:48:03;19.60;95.70
53073;DHT22;38955;48.916;2.336;2023-08-30T08:50:09;19.60;95.40
53073;DHT22;38955;48.916;2.336;2023-08-30T08:52:11;19.70;95.10
53073;DHT22;38955;48.916;2.336;2023-08-30T08:54:32;19.80;95.10
53073;DHT22;38955;48.916;2.336;2023-08-30T08:56:34;19.90;94.80
53073;DHT22;38955;48.916;2.336;2023-08-30T08:58:36;19.90;94.60
53073;DHT22;38955;48.916;2.336;2023-08-30T09:00:41;20.10;94.50
53073;DHT22;38955;48.916;2.336;2023-08-30T09:02:44;20.10;93.90
53073;DHT22;38955;48.916;2.336;2023-08-30T09:04:48;20.10;94.00
53073;DHT22;38955;48.916;2.336;2023-08-30T09:06:51;20.20;93.80
53073;DHT22;38955;48.916;2.336;2023-08-30T09:08:54;20.20;92.80
53073;DHT22;38955;48.916;2.336;2023-08-30T09:10:56;20.20;92.90
53073;DHT22;38955;48.916;2.336;2023-08-30T09:12:58;20.20;92.80
53073;DHT22;38955;48.916;2.336;2023-08-30T09:15:01;20.30;92.60
53073;DHT22;38955;48.916;2.336;2023-08-30T09:17:03;20.50;92.40
53073;DHT22;38955;48.916;2.336;2023-08-30T09:19:05;20.50;91.90
53073;DHT22;38955;48.916;2.336;2023-08-30T09:21:11;20.50;91.80
53073;DHT22;38955;48.916;2.336;2023-08-30T09:23:20;20.50;91.70
53073;DHT22;38955;48.916;2.336;2023-08-30T09:25:24;20.40;91.30
53073;DHT22;38955;48.916;2.336;2023-08-30T09:27:32;20.40;91.80
53073;DHT22;38955;48.916;2.336;2023-08-30T09:29:35;20.40;91.90
53073;DHT22;38955;48.916;2.336;2023-08-30T09:31:38;20.50;91.90
53073;DHT22;38955;48.916;2.336;2023-08-30T09:33:42;20.80;91.60
53073;DHT22;38955;48.916;2.336;2023-08-30T09:35:44;20.80;91.70
53073;DHT22;38955;48.916;2.336;2023-08-30T09:37:47;20.80;91.10
53073;DHT22;38955;48.916;2.336;2023-08-30T09:39:51;20.80;91.00
53073;DHT22;38955;48.916;2.336;2023-08-30T09:41:54;20.90;91.10
53073;DHT22;38955;48.916;2.336;2023-08-30T09:43:57;20.80;90.80
53073;DHT22;38955;48.916;2.336;2023-08-30T09:46:14;20.80;90.60
53073;DHT22;38955;48.916;2.336;2023-08-30T09:48:20;20.60;90.50
53073;DHT22;38955;48.916;2.336;2023-08-30T09:50:23;20.70;90.70
53073;DHT22;38955;48.916;2.336;2023-08-30T09:52:25;20.80;90.00
53073;DHT22;38955;48.916;2.336;2023-08-30T09:54:28;20.80;89.40
53073;DHT22;38955;48.916;2.336;2023-08-30T09:56:36;20.80;89.50
53073;DHT22;38955;48.916;2.336;2023-08-30T09:58:39;20.90;87.90
53073;DHT22;38955;48.916;2.336;2023-08-30T10:00:42;21.00;88.40
53073;DHT22;38955;48.916;2.336;2023-08-30T10:02:45;20.80;88.80
53073;DHT22;38955;48.916;2.336;2023-08-30T10:05:08;20.90;87.70
53073;DHT22;38955;48.916;2.336;2023-08-30T10:07:11;20.90;88.60
53073;DHT22;38955;48.916;2.336;2023-08-30T10:09:15;20.90;88.50
53073;DHT22;38955;48.916;2.336;2023-08-30T10:11:21;21.00;87.10
53073;DHT22;38955;48.916;2.336;2023-08-30T10:13:25;21.00;86.40
53073;DHT22;38955;48.916;2.336;2023-08-30T10:15:27;21.00;86.70
53073;DHT22;38955;48.916;2.336;2023-08-30T10:17:32;20.80;85.60
53073;DHT22;38955;48.916;2.336;2023-08-30T10:19:37;20.80;84.30
53073;DHT22;38955;48.916;2.336;2023-08-30T10:21:40;20.80;85.80
53073;DHT22;38955;48.916;2.336;2023-08-30T10:23:44;20.70;85.10
53073;DHT22;38955;48.916;2.336;2023-08-30T10:25:49;20.70;85.40
53073;DHT22;38955;48.916;2.336;2023-08-30T10:27:53;20.70;85.40
53073;DHT22;38955;48.916;2.336;2023-08-30T10:29:59;20.70;86.40
53073;DHT22;38955;48.916;2.336;2023-08-30T10:32:03;20.70;85.40
53073;DHT22;38955;48.916;2.336;2023-08-30T10:34:13;20.70;85.70
53073;DHT22;38955;48.916;2.336;2023-08-30T10:36:21;20.80;85.70
53073;DHT22;38955;48.916;2.336;2023-08-30T10:38:25;20.80;85.30
53073;DHT22;38955;48.916;2.336;2023-08-30T10:40:30;20.90;86.40
53073;DHT22;38955;48.916;2.336;2023-08-30T10:42:33;20.70;85.50
53073;DHT22;38955;48.916;2.336;2023-08-30T10:44:35;20.70;84.60
53073;DHT22;38955;48.916;2.336;2023-08-30T10:46:54;20.80;85.00
53073;DHT22;38955;48.916;2.336;2023-08-30T10:48:56;20.90;86.30
53073;DHT22;38955;48.916;2.336;2023-08-30T10:50:59;21.00;85.00
53073;DHT22;38955;48.916;2.336;2023-08-30T10:53:13;21.00;84.70
53073;DHT22;38955;48.916;2.336;2023-08-30T10:55:16;21.10;84.70
53073;DHT22;38955;48.916;2.336;2023-08-30T10:57:19;21.20;84.60
53073;DHT22;38955;48.916;2.336;2023-08-30T10:59:23;21.30;84.70
53073;DHT22;38955;48.916;2.336;2023-08-30T11:01:25;21.40;84.50
53073;DHT22;38955;48.916;2.336;2023-08-30T11:03:30;21.50;85.10
53073;DHT22;38955;48.916;2.336;2023-08-30T11:05:32;21.50;84.70
53073;DHT22;38955;48.916;2.336;2023-08-30T11:07:35;21.60;84.30
53073;DHT22;38955;48.916;2.336;2023-08-30T11:09:37;21.50;83.40
53073;DHT22;38955;48.916;2.336;2023-08-30T11:11:41;21.50;83.10
53073;DHT22;38955;48.916;2.336;2023-08-30T11:13:43;21.50;82.80
53073;DHT22;38955;48.916;2.336;2023-08-30T11:15:46;21.50;84.10
53073;DHT22;38955;48.916;2.336;2023-08-30T11:17:48;21.50;82.80
53073;DHT22;38955;48.916;2.336;2023-08-30T11:19:57;21.50;84.00
53073;DHT22;38955;48.916;2.336;2023-08-30T11:22:01;21.60;84.40
53073;DHT22;38955;48.916;2.336;2023-08-30T11:24:03;21.50;83.70
53073;DHT22;38955;48.916;2.336;2023-08-30T11:26:07;21.50;83.50
53073;DHT22;38955;48.916;2.336;2023-08-30T11:28:09;21.50;82.70
53073;DHT22;38955;48.916;2.336;2023-08-30T11:30:12;21.50;83.50
53073;DHT22;38955;48.916;2.336;2023-08-30T11:32:16;21.40;83.60
53073;DHT22;38955;48.916;2.336;2023-08-30T11:34:20;21.30;84.60
53073;DHT22;38955;48.916;2.336;2023-08-30T11:36:27;21.20;84.00
53073;DHT22;38955;48.916;2.336;2023-08-30T11:38:29;21.20;84.70
53073;DHT22;38955;48.916;2.336;2023-08-30T11:40:32;20.90;83.90
53073;DHT22;38955;48.916;2.336;2023-08-30T11:42:34;21.00;85.20
53073;DHT22;38955;48.916;2.336;2023-08-30T11:44:36;21.10;84.90
53073;DHT22;38955;48.916;2.336;2023-08-30T11:46:39;21.20;85.30
53073;DHT22;38955;48.916;2.336;2023-08-30T11:48:41;21.10;83.20
53073;DHT22;38955;48.916;2.336;2023-08-30T11:50:43;21.20;82.10
53073;DHT22;38955;48.916;2.336;2023-08-30T11:52:51;21.30;82.10
53073;DHT22;38955;48.916;2.336;2023-08-30T11:54:54;21.30;81.90
53073;DHT22;38955;48.916;2.336;2023-08-30T11:56:57;21.20;82.30
53073;DHT22;38955;48.916;2.336;2023-08-30T11:59:00;21.20;82.10
53073;DHT22;38955;48.916;2.336;2023-08-30T12:01:02;21.30;82.60
53073;DHT22;38955;48.916;2.336;2023-08-30T12:03:05;21.40;81.70
53073;DHT22;38955;48.916;2.336;2023-08-30T12:05:11;21.20;82.40
53073;DHT22;38955;48.916;2.336;2023-08-30T12:07:21;21.30;81.90
53073;DHT22;38955;48.916;2.336;2023-08-30T12:09:31;21.30;81.60
53073;DHT22;38955;48.916;2.336;2023-08-30T12:11:33;21.20;82.50
53073;DHT22;38955;48.916;2.336;2023-08-30T12:13:35;21.20;81.70
53073;DHT22;38955;48.916;2.336;2023-08-30T12:15:39;21.40;82.00
53073;DHT22;38955;48.916;2.336;2023-08-30T12:17:41;21.60;82.50
53073;DHT22;38955;48.916;2.336;2023-08-30T12:19:43;21.60;81.40
53073;DHT22;38955;48.916;2.336;2023-08-30T12:21:47;21.70;81.60
53073;DHT22;38955;48.916;2.336;2023-08-30T12:23:59;21.60;81.60
53073;DHT22;38955;48.916;2.336;2023-08-30T12:26:04;21.50;81.30
53073;DHT22;38955;48.916;2.336;2023-08-30T12:28:06;21.50;81.40
53073;DHT22;38955;48.916;2.336;2023-08-30T12:30:09;21.60;82.20
53073;DHT22;38955;48.916;2.336;2023-08-30T12:32:11;21.40;79.30
53073;DHT22;38955;48.916;2.336;2023-08-30T12:34:13;21.20;80.90
53073;DHT22;38955;48.916;2.336;2023-08-30T12:36:15;21.30;80.50
53073;DHT22;38955;48.916;2.336;2023-08-30T12:38:17;21.20;80.60
53073;DHT22;38955;48.916;2.336;2023-08-30T12:40:19;21.30;80.40
53073;DHT22;38955;48.916;2.336;2023-08-30T12:42:23;21.30;80.40
53073;DHT22;38955;48.916;2.336;2023-08-30T12:44:25;21.40;80.00
53073;DHT22;38955;48.916;2.336;2023-08-30T12:46:27;21.40;80.40
53073;DHT22;38955;48.916;2.336;2023-08-30T12:48:29;21.50;80.00
53073;DHT22;38955;48.916;2.336;2023-08-30T12:50:31;21.60;79.80
53073;DHT22;38955;48.916;2.336;2023-08-30T12:52:33;21.70;79.90
53073;DHT22;38955;48.916;2.336;2023-08-30T12:54:36;21.80;80.50
53073;DHT22;38955;48.916;2.336;2023-08-30T12:56:38;21.90;81.10
53073;DHT22;38955;48.916;2.336;2023-08-30T12:58:41;21.80;81.60